sensor_id;sensor_type;location;lat;lon;timestamp;pressure;altitude;pressure_sealevel;temperature
76381;BMP280;65202;52.520;10.528;2024-03-22T00:02:09;101503.88;;;9.35
76381;BMP280;65202;52.520;10.528;2024-03-22T00:04:39;101500.75;;;9.11
76381;BMP280;65202;52.520;10.528;2024-03-22T00:07:05;101500.59;;;9.36
76381;BMP280;65202;52.520;10.528;2024-03-22T00:09:32;101495.47;;;9.20
76381;BMP280;65202;52.520;10.528;2024-03-22T00:11:58;101498.44;;;9.27
76381;BMP280;65202;52.520;10.528;2024-03-22T00:14:25;101491.72;;;9.26
76381;BMP280;65202;52.520;10.528;2024-03-22T00:16:51;101489.28;;;9.28
76381;BMP280;65202;52.520;10.528;2024-03-22T00:19:18;101484.69;;;9.21
76381;BMP280;65202;52.520;10.528;2024-03-22T00:21:44;101476.97;;;9.31
76381;BMP280;65202;52.520;10.528;2024-03-22T00:24:11;101482.16;;;9.34
76381;BMP280;65202;52.520;10.528;2024-03-22T00:26:37;101484.66;;;9.34
76381;BMP280;65202;52.520;10.528;2024-03-22T00:29:04;101489.88;;;9.24
76381;BMP280;65202;52.520;10.528;2024-03-22T00:31:30;101482.56;;;9.27
76381;BMP280;65202;52.520;10.528;2024-03-22T00:33:57;101484.88;;;9.24
76381;BMP280;65202;52.520;10.528;2024-03-22T00:36:23;101481.28;;;9.33
76381;BMP280;65202;52.520;10.528;2024-03-22T00:38:50;101479.25;;;9.40
76381;BMP280;65202;52.520;10.528;2024-03-22T00:41:16;101480.91;;;9.40
76381;BMP280;65202;52.520;10.528;2024-03-22T00:43:43;101461.16;;;9.44
76381;BMP280;65202;52.520;10.528;2024-03-22T00:46:09;101464.78;;;9.49
76381;BMP280;65202;52.520;10.528;2024-03-22T00:48:36;101466.06;;;9.43
76381;BMP280;65202;52.520;10.528;2024-03-22T00:51:02;101462.41;;;9.24
76381;BMP280;65202;52.520;10.528;2024-03-22T00:53:30;101461.00;;;9.41
76381;BMP280;65202;52.520;10.528;2024-03-22T00:55:56;101452.63;;;9.41
76381;BMP280;65202;52.520;10.528;2024-03-22T00:58:28;101437.28;;;9.35
76381;BMP280;65202;52.520;10.528;2024-03-22T01:00:54;101443.41;;;9.40
76381;BMP280;65202;52.520;10.528;2024-03-22T01:03:21;101440.03;;;9.39
76381;BMP280;65202;52.520;10.528;2024-03-22T01:05:48;101433.56;;;9.29
76381;BMP280;65202;52.520;10.528;2024-03-22T01:08:15;101424.22;;;9.53
76381;BMP280;65202;52.520;10.528;2024-03-22T01:10:41;101425.38;;;9.31
76381;BMP280;65202;52.520;10.528;2024-03-22T01:13:08;101419.47;;;9.43
76381;BMP280;65202;52.520;10.528;2024-03-22T01:15:35;101415.31;;;9.30
76381;BMP280;65202;52.520;10.528;2024-03-22T01:18:01;101415.00;;;9.52
76381;BMP280;65202;52.520;10.528;2024-03-22T01:20:28;101410.59;;;9.48
76381;BMP280;65202;52.520;10.528;2024-03-22T01:22:55;101402.00;;;9.31
76381;BMP280;65202;52.520;10.528;2024-03-22T01:25:21;101396.97;;;9.43
76381;BMP280;65202;52.520;10.528;2024-03-22T01:27:48;101393.78;;;9.46
76381;BMP280;65202;52.520;10.528;2024-03-22T01:30:14;101396.00;;;9.41
76381;BMP280;65202;52.520;10.528;2024-03-22T01:32:41;101388.88;;;9.47
76381;BMP280;65202;52.520;10.528;2024-03-22T01:35:08;101392.41;;;9.51
76381;BMP280;65202;52.520;10.528;2024-03-22T01:37:34;101396.06;;;9.56
76381;BMP280;65202;52.520;10.528;2024-03-22T01:40:02;101402.06;;;9.59
76381;BMP280;65202;52.520;10.528;2024-03-22T01:42:29;101407.41;;;9.65
76381;BMP280;65202;52.520;10.528;2024-03-22T01:44:55;101402.06;;;9.59
76381;BMP280;65202;52.520;10.528;2024-03-22T01:47:22;101414.41;;;9.56
76381;BMP280;65202;52.520;10.528;2024-03-22T01:49:50;101398.63;;;9.57
76381;BMP280;65202;52.520;10.528;2024-03-22T01:52:20;101389.66;;;9.61
76381;BMP280;65202;52.520;10.528;2024-03-22T01:54:46;101386.97;;;9.58
76381;BMP280;65202;52.520;10.528;2024-03-22T01:57:13;101385.69;;;9.64
76381;BMP280;65202;52.520;10.528;2024-03-22T01:59:39;101380.38;;;9.58
76381;BMP280;65202;52.520;10.528;2024-03-22T02:02:06;101373.09;;;9.48
76381;BMP280;65202;52.520;10.528;2024-03-22T02:04:32;101374.81;;;9.49
76381;BMP280;65202;52.520;10.528;2024-03-22T02:06:59;101369.13;;;9.52
76381;BMP280;65202;52.520;10.528;2024-03-22T02:09:26;101361.19;;;9.44
76381;BMP280;65202;52.520;10.528;2024-03-22T02:11:52;101357.66;;;9.55
76381;BMP280;65202;52.520;10.528;2024-03-22T02:14:19;101357.31;;;9.49
76381;BMP280;65202;52.520;10.528;2024-03-22T02:16:45;101356.97;;;9.58
76381;BMP280;65202;52.520;10.528;2024-03-22T02:19:12;101345.16;;;9.55
76381;BMP280;65202;52.520;10.528;2024-03-22T02:21:38;101339.75;;;9.62
76381;BMP280;65202;52.520;10.528;2024-03-22T02:24:05;101332.25;;;9.62
76381;BMP280;65202;52.520;10.528;2024-03-22T02:26:32;101338.78;;;9.60
76381;BMP280;65202;52.520;10.528;2024-03-22T02:28:58;101321.66;;;9.66
76381;BMP280;65202;52.520;10.528;2024-03-22T02:31:25;101310.00;;;9.67
76381;BMP280;65202;52.520;10.528;2024-03-22T02:33:53;101307.41;;;9.65
76381;BMP280;65202;52.520;10.528;2024-03-22T02:36:19;101313.09;;;9.63
76381;BMP280;65202;52.520;10.528;2024-03-22T02:38:45;101308.63;;;9.86
76381;BMP280;65202;52.520;10.528;2024-03-22T02:41:12;101302.91;;;9.74
76381;BMP280;65202;52.520;10.528;2024-03-22T02:43:38;101306.19;;;9.73
76381;BMP280;65202;52.520;10.528;2024-03-22T02:46:05;101307.00;;;9.72
76381;BMP280;65202;52.520;10.528;2024-03-22T02:48:32;101293.81;;;9.75
76381;BMP280;65202;52.520;10.528;2024-03-22T02:50:58;101289.66;;;9.75
76381;BMP280;65202;52.520;10.528;2024-03-22T02:53:25;101286.19;;;9.73
76381;BMP280;65202;52.520;10.528;2024-03-22T02:55:51;101275.75;;;9.80
76381;BMP280;65202;52.520;10.528;2024-03-22T02:58:19;101280.06;;;9.83
76381;BMP280;65202;52.520;10.528;2024-03-22T03:00:46;101276.09;;;9.86
76381;BMP280;65202;52.520;10.528;2024-03-22T03:03:13;101268.25;;;9.80
76381;BMP280;65202;52.520;10.528;2024-03-22T03:05:39;101268.41;;;9.83
76381;BMP280;65202;52.520;10.528;2024-03-22T03:08:07;101257.22;;;9.91
76381;BMP280;65202;52.520;10.528;2024-03-22T03:10:33;101248.53;;;9.85
76381;BMP280;65202;52.520;10.528;2024-03-22T03:13:00;101241.53;;;9.79
76381;BMP280;65202;52.520;10.528;2024-03-22T03:15:27;101235.31;;;9.87
76381;BMP280;65202;52.520;10.528;2024-03-22T03:17:53;101236.88;;;9.85
76381;BMP280;65202;52.520;10.528;2024-03-22T03:20:20;101236.53;;;9.79
76381;BMP280;65202;52.520;10.528;2024-03-22T03:22:46;101226.84;;;9.85
76381;BMP280;65202;52.520;10.528;2024-03-22T03:25:12;101233.25;;;9.80
76381;BMP280;65202;52.520;10.528;2024-03-22T03:27:39;101233.09;;;9.77
76381;BMP280;65202;52.520;10.528;2024-03-22T03:30:31;101232.13;;;9.75
76381;BMP280;65202;52.520;10.528;2024-03-22T03:32:58;101231.53;;;9.79
76381;BMP280;65202;52.520;10.528;2024-03-22T03:35:24;101217.19;;;9.91
76381;BMP280;65202;52.520;10.528;2024-03-22T03:37:52;101212.47;;;9.81
76381;BMP280;65202;52.520;10.528;2024-03-22T03:40:18;101213.88;;;9.76
76381;BMP280;65202;52.520;10.528;2024-03-22T03:42:45;101212.28;;;9.78
76381;BMP280;65202;52.520;10.528;2024-03-22T03:45:11;101208.16;;;9.79
76381;BMP280;65202;52.520;10.528;2024-03-22T03:47:38;101210.47;;;9.76
76381;BMP280;65202;52.520;10.528;2024-03-22T03:50:05;101196.63;;;9.66
76381;BMP280;65202;52.520;10.528;2024-03-22T03:52:32;101202.13;;;9.75
76381;BMP280;65202;52.520;10.528;2024-03-22T03:54:58;101207.28;;;9.78
76381;BMP280;65202;52.520;10.528;2024-03-22T03:57:24;101193.56;;;9.86
76381;BMP280;65202;52.520;10.528;2024-03-22T03:59:51;101192.41;;;9.80
76381;BMP280;65202;52.520;10.528;2024-03-22T04:02:18;101192.69;;;9.86
76381;BMP280;65202;52.520;10.528;2024-03-22T04:04:44;101188.84;;;9.76
76381;BMP280;65202;52.520;10.528;2024-03-22T04:07:10;101177.28;;;9.78
76381;BMP280;65202;52.520;10.528;2024-03-22T04:09:37;101188.16;;;9.79
76381;BMP280;65202;52.520;10.528;2024-03-22T04:12:03;101186.78;;;9.84
76381;BMP280;65202;52.520;10.528;2024-03-22T04:14:30;101189.97;;;9.81
76381;BMP280;65202;52.520;10.528;2024-03-22T04:16:57;101189.50;;;9.88
76381;BMP280;65202;52.520;10.528;2024-03-22T04:19:24;101183.56;;;9.86
76381;BMP280;65202;52.520;10.528;2024-03-22T04:21:50;101170.13;;;9.84
76381;BMP280;65202;52.520;10.528;2024-03-22T04:24:16;101172.19;;;9.77
76381;BMP280;65202;52.520;10.528;2024-03-22T04:26:43;101167.19;;;9.77
76381;BMP280;65202;52.520;10.528;2024-03-22T04:29:09;101166.59;;;9.81
76381;BMP280;65202;52.520;10.528;2024-03-22T04:31:36;101156.91;;;9.87
76381;BMP280;65202;52.520;10.528;2024-03-22T04:34:02;101154.06;;;9.81
76381;BMP280;65202;52.520;10.528;2024-03-22T04:36:29;101153.56;;;9.86
76381;BMP280;65202;52.520;10.528;2024-03-22T04:38:55;101138.91;;;9.78
76381;BMP280;65202;52.520;10.528;2024-03-22T04:41:22;101144.34;;;9.85
76381;BMP280;65202;52.520;10.528;2024-03-22T04:43:48;101137.16;;;9.91
76381;BMP280;65202;52.520;10.528;2024-03-22T04:46:15;101134.31;;;9.85
76381;BMP280;65202;52.520;10.528;2024-03-22T04:48:41;101135.56;;;9.93
76381;BMP280;65202;52.520;10.528;2024-03-22T04:51:07;101133.50;;;10.01
76381;BMP280;65202;52.520;10.528;2024-03-22T04:53:34;101128.00;;;9.92
76381;BMP280;65202;52.520;10.528;2024-03-22T04:56:01;101119.00;;;9.79
76381;BMP280;65202;52.520;10.528;2024-03-22T04:58:29;101117.16;;;9.91
76381;BMP280;65202;52.520;10.528;2024-03-22T05:00:56;101114.94;;;9.81
76381;BMP280;65202;52.520;10.528;2024-03-22T05:03:24;101114.97;;;9.97
76381;BMP280;65202;52.520;10.528;2024-03-22T05:05:50;101111.97;;;9.88
76381;BMP280;65202;52.520;10.528;2024-03-22T05:08:17;101106.03;;;9.86
76381;BMP280;65202;52.520;10.528;2024-03-22T05:10:43;101100.56;;;9.93
76381;BMP280;65202;52.520;10.528;2024-03-22T05:13:10;101090.84;;;9.83
76381;BMP280;65202;52.520;10.528;2024-03-22T05:15:36;101094.00;;;9.79
76381;BMP280;65202;52.520;10.528;2024-03-22T05:18:03;101097.38;;;9.80
76381;BMP280;65202;52.520;10.528;2024-03-22T05:20:30;101097.38;;;9.80
76381;BMP280;65202;52.520;10.528;2024-03-22T05:22:57;101091.66;;;9.82
76381;BMP280;65202;52.520;10.528;2024-03-22T05:25:23;101085.72;;;9.80
76381;BMP280;65202;52.520;10.528;2024-03-22T05:27:50;101086.25;;;9.75
76381;BMP280;65202;52.520;10.528;2024-03-22T05:30:16;101089.53;;;9.74
76381;BMP280;65202;52.520;10.528;2024-03-22T05:32:43;101089.94;;;9.81
76381;BMP280;65202;52.520;10.528;2024-03-22T05:35:09;101086.66;;;9.82
76381;BMP280;65202;52.520;10.528;2024-03-22T05:37:36;101088.47;;;9.85
76381;BMP280;65202;52.520;10.528;2024-03-22T05:40:03;101089.75;;;9.78
76381;BMP280;65202;52.520;10.528;2024-03-22T05:42:32;101090.00;;;9.83
76381;BMP280;65202;52.520;10.528;2024-03-22T05:44:59;101088.22;;;9.80
76381;BMP280;65202;52.520;10.528;2024-03-22T05:47:25;101076.28;;;9.75
76381;BMP280;65202;52.520;10.528;2024-03-22T05:49:52;101068.59;;;9.88
76381;BMP280;65202;52.520;10.528;2024-03-22T05:52:18;101074.31;;;9.85
76381;BMP280;65202;52.520;10.528;2024-03-22T05:54:45;101071.34;;;9.76
76381;BMP280;65202;52.520;10.528;2024-03-22T05:57:12;101071.59;;;9.97
76381;BMP280;65202;52.520;10.528;2024-03-22T05:59:38;101076.44;;;9.94
76381;BMP280;65202;52.520;10.528;2024-03-22T06:02:05;101077.44;;;9.81
76381;BMP280;65202;52.520;10.528;2024-03-22T06:04:32;101078.53;;;9.86
76381;BMP280;65202;52.520;10.528;2024-03-22T06:06:59;101069.09;;;9.97
76381;BMP280;65202;52.520;10.528;2024-03-22T06:09:26;101060.06;;;9.99
76381;BMP280;65202;52.520;10.528;2024-03-22T06:12:20;101045.63;;;10.10
76381;BMP280;65202;52.520;10.528;2024-03-22T06:14:48;101053.72;;;10.05
76381;BMP280;65202;52.520;10.528;2024-03-22T06:17:14;101047.13;;;10.07
76381;BMP280;65202;52.520;10.528;2024-03-22T06:19:42;101048.78;;;10.06
76381;BMP280;65202;52.520;10.528;2024-03-22T06:22:08;101041.53;;;10.11
76381;BMP280;65202;52.520;10.528;2024-03-22T06:24:35;101040.44;;;10.06
76381;BMP280;65202;52.520;10.528;2024-03-22T06:27:02;101044.81;;;10.10
76381;BMP280;65202;52.520;10.528;2024-03-22T06:29:29;101045.50;;;10.07
76381;BMP280;65202;52.520;10.528;2024-03-22T06:31:55;101035.81;;;10.13
76381;BMP280;65202;52.520;10.528;2024-03-22T06:34:21;101038.31;;;10.13
76381;BMP280;65202;52.520;10.528;2024-03-22T06:36:48;101034.94;;;10.13
76381;BMP280;65202;52.520;10.528;2024-03-22T06:39:15;101035.88;;;10.15
76381;BMP280;65202;52.520;10.528;2024-03-22T06:41:42;101032.75;;;10.19
76381;BMP280;65202;52.520;10.528;2024-03-22T06:44:09;101036.88;;;10.18
76381;BMP280;65202;52.520;10.528;2024-03-22T06:46:39;101022.34;;;10.11
76381;BMP280;65202;52.520;10.528;2024-03-22T06:49:06;101022.66;;;10.17
76381;BMP280;65202;52.520;10.528;2024-03-22T06:51:32;101016.94;;;10.20
76381;BMP280;65202;52.520;10.528;2024-03-22T06:53:59;101013.09;;;10.26
76381;BMP280;65202;52.520;10.528;2024-03-22T06:56:25;101010.81;;;10.31
76381;BMP280;65202;52.520;10.528;2024-03-22T06:58:52;101004.28;;;10.17
76381;BMP280;65202;52.520;10.528;2024-03-22T07:01:18;101007.53;;;10.32
76381;BMP280;65202;52.520;10.528;2024-03-22T07:03:47;101006.09;;;10.37
76381;BMP280;65202;52.520;10.528;2024-03-22T07:06:14;101003.66;;;10.38
76381;BMP280;65202;52.520;10.528;2024-03-22T07:08:41;100994.81;;;10.45
76381;BMP280;65202;52.520;10.528;2024-03-22T07:11:07;100996.84;;;10.52
76381;BMP280;65202;52.520;10.528;2024-03-22T07:13:35;100992.13;;;10.58
76381;BMP280;65202;52.520;10.528;2024-03-22T07:16:02;100992.56;;;10.67
76381;BMP280;65202;52.520;10.528;2024-03-22T07:18:29;100993.28;;;10.64
76381;BMP280;65202;52.520;10.528;2024-03-22T07:20:55;100989.75;;;10.61
76381;BMP280;65202;52.520;10.528;2024-03-22T07:23:24;100995.00;;;10.65
76381;BMP280;65202;52.520;10.528;2024-03-22T07:25:50;100978.75;;;10.74
76381;BMP280;65202;52.520;10.528;2024-03-22T07:28:16;100984.97;;;10.65
76381;BMP280;65202;52.520;10.528;2024-03-22T07:30:43;100977.13;;;10.75
76381;BMP280;65202;52.520;10.528;2024-03-22T07:33:10;100971.38;;;10.77
76381;BMP280;65202;52.520;10.528;2024-03-22T07:35:39;100979.03;;;10.80
76381;BMP280;65202;52.520;10.528;2024-03-22T07:38:06;100975.81;;;11.00
76381;BMP280;65202;52.520;10.528;2024-03-22T07:40:32;100968.69;;;11.09
76381;BMP280;65202;52.520;10.528;2024-03-22T07:42:59;100971.03;;;11.24
76381;BMP280;65202;52.520;10.528;2024-03-22T07:45:25;100963.25;;;11.36
76381;BMP280;65202;52.520;10.528;2024-03-22T07:47:52;100963.31;;;11.19
76381;BMP280;65202;52.520;10.528;2024-03-22T07:50:18;100960.47;;;11.30
76381;BMP280;65202;52.520;10.528;2024-03-22T07:52:45;100956.91;;;11.26
76381;BMP280;65202;52.520;10.528;2024-03-22T07:55:12;100956.84;;;11.24
76381;BMP280;65202;52.520;10.528;2024-03-22T07:57:38;100955.56;;;11.15
76381;BMP280;65202;52.520;10.528;2024-03-22T08:00:05;100964.16;;;11.20
76381;BMP280;65202;52.520;10.528;2024-03-22T08:02:37;100970.03;;;11.20
76381;BMP280;65202;52.520;10.528;2024-03-22T08:05:04;100966.59;;;11.18
76381;BMP280;65202;52.520;10.528;2024-03-22T08:07:32;100959.34;;;11.24
76381;BMP280;65202;52.520;10.528;2024-03-22T08:09:58;100954.06;;;11.18
76381;BMP280;65202;52.520;10.528;2024-03-22T08:12:26;100953.28;;;11.19
76381;BMP280;65202;52.520;10.528;2024-03-22T08:14:52;100946.16;;;11.28
76381;BMP280;65202;52.520;10.528;2024-03-22T08:17:19;100943.78;;;11.31
76381;BMP280;65202;52.520;10.528;2024-03-22T08:19:45;100944.59;;;11.30
76381;BMP280;65202;52.520;10.528;2024-03-22T08:22:11;100947.28;;;11.34
76381;BMP280;65202;52.520;10.528;2024-03-22T08:24:38;100942.94;;;11.30
76381;BMP280;65202;52.520;10.528;2024-03-22T08:27:05;100940.66;;;11.35
76381;BMP280;65202;52.520;10.528;2024-03-22T08:29:31;100936.75;;;11.41
76381;BMP280;65202;52.520;10.528;2024-03-22T08:31:58;100932.47;;;11.39
76381;BMP280;65202;52.520;10.528;2024-03-22T08:34:25;100937.75;;;11.45
76381;BMP280;65202;52.520;10.528;2024-03-22T08:36:51;100937.28;;;11.53
76381;BMP280;65202;52.520;10.528;2024-03-22T08:39:17;100946.59;;;11.56
76381;BMP280;65202;52.520;10.528;2024-03-22T08:41:44;100937.69;;;11.62
76381;BMP280;65202;52.520;10.528;2024-03-22T08:44:10;100932.09;;;11.68
76381;BMP280;65202;52.520;10.528;2024-03-22T08:46:37;100930.44;;;11.68
76381;BMP280;65202;52.520;10.528;2024-03-22T08:49:03;100930.75;;;11.76
76381;BMP280;65202;52.520;10.528;2024-03-22T08:51:29;100929.03;;;11.75
76381;BMP280;65202;52.520;10.528;2024-03-22T08:53:56;100925.78;;;11.77
76381;BMP280;65202;52.520;10.528;2024-03-22T08:56:23;100915.84;;;11.79
76381;BMP280;65202;52.520;10.528;2024-03-22T08:58:49;100908.44;;;11.82
76381;BMP280;65202;52.520;10.528;2024-03-22T09:01:16;100909.44;;;11.85
76381;BMP280;65202;52.520;10.528;2024-03-22T09:03:43;100909.59;;;11.90
76381;BMP280;65202;52.520;10.528;2024-03-22T09:06:12;100918.31;;;11.97
76381;BMP280;65202;52.520;10.528;2024-03-22T09:08:39;100915.38;;;12.07
76381;BMP280;65202;52.520;10.528;2024-03-22T09:11:05;100909.81;;;12.14
76381;BMP280;65202;52.520;10.528;2024-03-22T09:13:32;100912.56;;;12.20
76381;BMP280;65202;52.520;10.528;2024-03-22T09:16:01;100893.38;;;12.22
76381;BMP280;65202;52.520;10.528;2024-03-22T09:18:27;100910.94;;;12.22
76381;BMP280;65202;52.520;10.528;2024-03-22T09:20:54;100899.44;;;12.27
76381;BMP280;65202;52.520;10.528;2024-03-22T09:23:20;100896.38;;;12.34
76381;BMP280;65202;52.520;10.528;2024-03-22T09:25:47;100883.66;;;12.30
76381;BMP280;65202;52.520;10.528;2024-03-22T09:28:14;100889.34;;;12.26
76381;BMP280;65202;52.520;10.528;2024-03-22T09:30:44;100889.09;;;12.20
76381;BMP280;65202;52.520;10.528;2024-03-22T09:33:11;100886.44;;;12.15
76381;BMP280;65202;52.520;10.528;2024-03-22T09:35:37;100887.31;;;12.17
76381;BMP280;65202;52.520;10.528;2024-03-22T09:38:04;100891.03;;;12.05
76381;BMP280;65202;52.520;10.528;2024-03-22T09:40:30;100891.63;;;11.99
76381;BMP280;65202;52.520;10.528;2024-03-22T09:43:03;100888.63;;;11.88
76381;BMP280;65202;52.520;10.528;2024-03-22T09:45:31;100886.19;;;11.89
76381;BMP280;65202;52.520;10.528;2024-03-22T09:47:58;100894.06;;;11.78
76381;BMP280;65202;52.520;10.528;2024-03-22T09:50:26;100890.75;;;11.79
76381;BMP280;65202;52.520;10.528;2024-03-22T09:52:53;100886.28;;;11.72
76381;BMP280;65202;52.520;10.528;2024-03-22T09:55:22;100881.25;;;11.72
76381;BMP280;65202;52.520;10.528;2024-03-22T09:57:50;100862.66;;;11.67
76381;BMP280;65202;52.520;10.528;2024-03-22T10:00:20;100861.00;;;11.67
76381;BMP280;65202;52.520;10.528;2024-03-22T10:02:52;100875.31;;;11.70
76381;BMP280;65202;52.520;10.528;2024-03-22T10:05:19;100877.59;;;11.64
76381;BMP280;65202;52.520;10.528;2024-03-22T10:07:46;100874.34;;;11.66
76381;BMP280;65202;52.520;10.528;2024-03-22T10:10:13;100875.25;;;11.68
76381;BMP280;65202;52.520;10.528;2024-03-22T10:12:41;100870.19;;;11.67
76381;BMP280;65202;52.520;10.528;2024-03-22T10:15:08;100863.69;;;11.72
76381;BMP280;65202;52.520;10.528;2024-03-22T10:17:35;100863.44;;;11.66
76381;BMP280;65202;52.520;10.528;2024-03-22T10:20:03;100857.84;;;11.71
76381;BMP280;65202;52.520;10.528;2024-03-22T10:22:30;100853.41;;;11.86
76381;BMP280;65202;52.520;10.528;2024-03-22T10:24:57;100860.16;;;11.87
76381;BMP280;65202;52.520;10.528;2024-03-22T10:27:27;100853.41;;;11.86
76381;BMP280;65202;52.520;10.528;2024-03-22T10:29:55;100836.97;;;11.93
76381;BMP280;65202;52.520;10.528;2024-03-22T10:32:23;100832.81;;;11.93
76381;BMP280;65202;52.520;10.528;2024-03-22T10:34:50;100836.16;;;11.93
76381;BMP280;65202;52.520;10.528;2024-03-22T10:37:17;100835.53;;;11.97
76381;BMP280;65202;52.520;10.528;2024-03-22T10:39:43;100835.72;;;12.03
76381;BMP280;65202;52.520;10.528;2024-03-22T10:42:12;100833.47;;;12.09
76381;BMP280;65202;52.520;10.528;2024-03-22T10:44:41;100837.25;;;12.20
76381;BMP280;65202;52.520;10.528;2024-03-22T10:47:09;100825.59;;;12.22
76381;BMP280;65202;52.520;10.528;2024-03-22T10:49:37;100829.97;;;12.26
76381;BMP280;65202;52.520;10.528;2024-03-22T10:52:07;100818.31;;;12.28
76381;BMP280;65202;52.520;10.528;2024-03-22T10:54:40;100816.56;;;12.26
76381;BMP280;65202;52.520;10.528;2024-03-22T10:57:14;100812.63;;;12.32
76381;BMP280;65202;52.520;10.528;2024-03-22T10:59:42;100810.00;;;12.29
76381;BMP280;65202;52.520;10.528;2024-03-22T11:02:12;100812.75;;;12.35
76381;BMP280;65202;52.520;10.528;2024-03-22T11:04:40;100814.44;;;12.58
76381;BMP280;65202;52.520;10.528;2024-03-22T11:07:06;100803.84;;;12.65
76381;BMP280;65202;52.520;10.528;2024-03-22T11:09:34;100793.78;;;12.65
76381;BMP280;65202;52.520;10.528;2024-03-22T11:12:01;100783.34;;;12.76
76381;BMP280;65202;52.520;10.528;2024-03-22T11:14:30;100787.16;;;12.67
76381;BMP280;65202;52.520;10.528;2024-03-22T11:16:56;100779.06;;;12.74
76381;BMP280;65202;52.520;10.528;2024-03-22T11:19:23;100785.16;;;12.80
76381;BMP280;65202;52.520;10.528;2024-03-22T11:21:49;100772.72;;;12.85
76381;BMP280;65202;52.520;10.528;2024-03-22T11:24:16;100781.09;;;12.84
76381;BMP280;65202;52.520;10.528;2024-03-22T11:26:42;100770.38;;;12.88
76381;BMP280;65202;52.520;10.528;2024-03-22T11:29:10;100764.38;;;13.08
76381;BMP280;65202;52.520;10.528;2024-03-22T11:31:37;100758.84;;;13.42
76381;BMP280;65202;52.520;10.528;2024-03-22T11:34:03;100759.22;;;13.79
76381;BMP280;65202;52.520;10.528;2024-03-22T11:36:30;100757.00;;;13.88
76381;BMP280;65202;52.520;10.528;2024-03-22T11:38:57;100760.94;;;13.80
76381;BMP280;65202;52.520;10.528;2024-03-22T11:41:26;100749.34;;;14.11
76381;BMP280;65202;52.520;10.528;2024-03-22T11:43:55;100747.69;;;14.40
76381;BMP280;65202;52.520;10.528;2024-03-22T11:46:24;100750.00;;;14.91
76381;BMP280;65202;52.520;10.528;2024-03-22T11:48:53;100740.91;;;14.97
76381;BMP280;65202;52.520;10.528;2024-03-22T11:51:20;100723.19;;;14.94
76381;BMP280;65202;52.520;10.528;2024-03-22T11:53:54;100736.38;;;14.84
76381;BMP280;65202;52.520;10.528;2024-03-22T11:56:22;100738.53;;;14.72
76381;BMP280;65202;52.520;10.528;2024-03-22T11:58:58;100726.09;;;14.48
76381;BMP280;65202;52.520;10.528;2024-03-22T12:01:25;100734.53;;;14.49
76381;BMP280;65202;52.520;10.528;2024-03-22T12:03:53;100724.69;;;14.28
76381;BMP280;65202;52.520;10.528;2024-03-22T12:06:20;100723.50;;;14.17
76381;BMP280;65202;52.520;10.528;2024-03-22T12:08:47;100730.06;;;14.12
76381;BMP280;65202;52.520;10.528;2024-03-22T12:11:14;100726.75;;;14.13
76381;BMP280;65202;52.520;10.528;2024-03-22T12:13:40;100717.03;;;13.98
76381;BMP280;65202;52.520;10.528;2024-03-22T12:16:07;100716.94;;;13.94
76381;BMP280;65202;52.520;10.528;2024-03-22T12:18:33;100711.06;;;13.95
76381;BMP280;65202;52.520;10.528;2024-03-22T12:21:00;100709.19;;;13.88
76381;BMP280;65202;52.520;10.528;2024-03-22T12:23:27;100701.72;;;13.91
76381;BMP280;65202;52.520;10.528;2024-03-22T12:25:54;100693.59;;;13.99
76381;BMP280;65202;52.520;10.528;2024-03-22T12:28:21;100698.16;;;13.84
76381;BMP280;65202;52.520;10.528;2024-03-22T12:30:51;100698.16;;;13.84
76381;BMP280;65202;52.520;10.528;2024-03-22T12:33:18;100702.88;;;13.74
76381;BMP280;65202;52.520;10.528;2024-03-22T12:35:45;100701.97;;;13.72
76381;BMP280;65202;52.520;10.528;2024-03-22T12:38:13;100693.34;;;13.64
76381;BMP280;65202;52.520;10.528;2024-03-22T12:40:40;100690.03;;;13.65
76381;BMP280;65202;52.520;10.528;2024-03-22T12:43:09;100677.13;;;13.56
76381;BMP280;65202;52.520;10.528;2024-03-22T12:45:37;100691.34;;;13.54
76381;BMP280;65202;52.520;10.528;2024-03-22T12:48:04;100700.59;;;13.55
76381;BMP280;65202;52.520;10.528;2024-03-22T12:50:31;100694.38;;;13.44
76381;BMP280;65202;52.520;10.528;2024-03-22T12:52:57;100697.66;;;13.42
76381;BMP280;65202;52.520;10.528;2024-03-22T12:55:25;100703.69;;;13.47
76381;BMP280;65202;52.520;10.528;2024-03-22T12:57:54;100688.56;;;13.45
76381;BMP280;65202;52.520;10.528;2024-03-22T13:00:21;100689.34;;;13.44
76381;BMP280;65202;52.520;10.528;2024-03-22T13:02:47;100695.97;;;13.42
76381;BMP280;65202;52.520;10.528;2024-03-22T13:05:14;100699.13;;;13.35
76381;BMP280;65202;52.520;10.528;2024-03-22T13:07:41;100702.44;;;13.34
76381;BMP280;65202;52.520;10.528;2024-03-22T13:10:08;100687.94;;;13.27
76381;BMP280;65202;52.520;10.528;2024-03-22T13:12:35;100692.00;;;13.23
76381;BMP280;65202;52.520;10.528;2024-03-22T13:15:02;100687.47;;;13.13
76381;BMP280;65202;52.520;10.528;2024-03-22T13:17:30;100685.63;;;13.09
76381;BMP280;65202;52.520;10.528;2024-03-22T13:19:57;100679.06;;;13.12
76381;BMP280;65202;52.520;10.528;2024-03-22T13:22:24;100683.84;;;13.05
76381;BMP280;65202;52.520;10.528;2024-03-22T13:24:50;100681.97;;;12.99
76381;BMP280;65202;52.520;10.528;2024-03-22T13:27:17;100672.91;;;13.03
76381;BMP280;65202;52.520;10.528;2024-03-22T13:29:43;100677.16;;;13.05
76381;BMP280;65202;52.520;10.528;2024-03-22T13:32:10;100673.53;;;12.97
76381;BMP280;65202;52.520;10.528;2024-03-22T13:34:37;100671.06;;;12.99
76381;BMP280;65202;52.520;10.528;2024-03-22T13:37:05;100665.94;;;12.96
76381;BMP280;65202;52.520;10.528;2024-03-22T13:39:32;100666.00;;;12.97
76381;BMP280;65202;52.520;10.528;2024-03-22T13:41:59;100662.59;;;12.95
76381;BMP280;65202;52.520;10.528;2024-03-22T13:44:25;100662.47;;;12.92
76381;BMP280;65202;52.520;10.528;2024-03-22T13:46:52;100671.72;;;12.93
76381;BMP280;65202;52.520;10.528;2024-03-22T13:49:19;100659.78;;;12.86